Time;durP1;ratioP1;P1;durP2;ratioP2;P2;SDS_P1;SDS_P2;PMS_P1;PMS_P2;Temp;Humidity;BMP_temperature;BMP_pressure;BME280_temperature;BME280_humidity;BME280_pressure;Samples;Min_cycle;Max_cycle;Signal;HPM_P1;HPM_P2
2021/07/16 00:00:07;;;;;;;1.55;0.38;;;;;;;15.83;74.30;92777.94;2049021;70;20135;-76
2021/07/16 00:02:33;;;;;;;0.20;0.20;;;;;;;15.88;74.23;92785.97;2048939;70;20159;-77
2021/07/16 00:04:59;;;;;;;2.13;0.55;;;;;;;15.82;74.27;92777.22;2049033;70;20204;-76
2021/07/16 00:07:25;;;;;;;1.48;0.32;;;;;;;15.87;74.97;92776.00;2048916;70;20127;-75
2021/07/16 00:09:51;;;;;;;0.65;0.50;;;;;;;15.92;74.26;92776.91;2048271;70;20728;-75
2021/07/16 00:12:17;;;;;;;1.85;0.82;;;;;;;15.75;75.82;92778.31;2048413;70;21005;-76
2021/07/16 00:14:43;;;;;;;0.85;0.40;;;;;;;15.85;75.29;92778.00;2048698;70;20283;-78
2021/07/16 00:17:12;;;;;;;1.25;0.50;;;;;;;15.86;75.53;92783.06;2048976;70;20181;-78
2021/07/16 00:19:38;;;;;;;5.07;0.50;;;;;;;15.83;75.31;92789.28;2049276;69;20245;-78
2021/07/16 00:22:07;;;;;;;1.10;0.60;;;;;;;15.76;76.00;92785.47;2049009;70;20253;-77
2021/07/16 00:24:34;;;;;;;1.73;0.55;;;;;;;15.86;75.40;92780.22;2049010;70;20134;-79
2021/07/16 00:27:01;;;;;;;2.25;0.47;;;;;;;15.79;75.32;92784.16;2049116;70;20134;-79
2021/07/16 00:29:28;;;;;;;2.83;0.50;;;;;;;15.77;75.72;92786.94;2049145;70;20159;-78
2021/07/16 00:31:55;;;;;;;4.38;0.50;;;;;;;15.78;75.73;92787.66;2048961;70;20199;-79
2021/07/16 00:34:24;;;;;;;1.00;0.40;;;;;;;15.71;76.17;92790.25;2048920;70;20145;-78
2021/07/16 00:36:50;;;;;;;3.60;0.50;;;;;;;15.75;73.98;92793.22;2048483;70;20146;-78
2021/07/16 00:39:20;;;;;;;1.70;0.55;;;;;;;15.81;74.65;92786.38;2048465;69;20143;-78
2021/07/16 00:41:46;;;;;;;5.40;0.77;;;;;;;15.83;74.51;92783.63;2048971;70;20147;-78
2021/07/16 00:44:12;;;;;;;2.85;0.60;;;;;;;15.79;74.92;92789.13;2048381;70;20180;-77
2021/07/16 00:46:38;;;;;;;4.55;0.60;;;;;;;15.73;75.85;92781.06;2048741;70;20524;-78
2021/07/16 00:49:04;;;;;;;1.85;0.45;;;;;;;15.72;76.06;92779.63;2048665;70;20142;-76
2021/07/16 00:51:30;;;;;;;2.10;0.80;;;;;;;15.73;76.09;92781.81;2048841;70;20182;-79
2021/07/16 00:53:56;;;;;;;4.47;0.98;;;;;;;15.63;75.71;92791.97;2052181;69;20145;-76
2021/07/16 00:56:25;;;;;;;4.05;0.40;;;;;;;15.77;74.91;92789.03;2052117;70;20183;-76
2021/07/16 00:58:52;;;;;;;1.95;0.40;;;;;;;15.70;75.93;92790.88;2064709;69;20165;-78
2021/07/16 01:01:17;;;;;;;1.77;0.30;;;;;;;15.61;76.37;92795.44;2051919;70;20727;-76
2021/07/16 01:03:43;;;;;;;0.63;0.30;;;;;;;15.60;76.60;92804.59;2052102;70;20154;-75
2021/07/16 01:06:08;;;;;;;3.28;0.40;;;;;;;15.73;74.21;92795.25;2052282;70;20162;-75
2021/07/16 01:08:34;;;;;;;1.30;0.43;;;;;;;15.74;75.11;92793.88;2052103;69;20158;-75
2021/07/16 01:11:01;;;;;;;1.52;0.40;;;;;;;15.67;75.45;92783.66;2064965;69;20195;-75
2021/07/16 01:13:27;;;;;;;2.90;0.40;;;;;;;15.65;73.50;92777.88;2051990;69;20181;-75
2021/07/16 01:15:55;;;;;;;1.52;0.40;;;;;;;15.68;74.49;92791.53;2051923;69;20138;-75
2021/07/16 01:18:22;;;;;;;2.97;0.50;;;;;;;15.59;74.76;92786.84;2052063;70;20212;-75
2021/07/16 01:20:48;;;;;;;0.40;0.40;;;;;;;15.67;73.89;92780.81;2052099;69;20619;-75
2021/07/16 01:23:22;;;;;;;4.13;0.40;;;;;;;15.63;75.18;92781.34;2051921;69;20154;-76
2021/07/16 01:25:48;;;;;;;0.85;0.40;;;;;;;15.63;74.21;92777.78;2052048;70;20239;-75
2021/07/16 01:28:14;;;;;;;4.78;0.40;;;;;;;15.53;75.76;92780.88;2052136;70;20221;-75
2021/07/16 01:30:40;;;;;;;1.75;0.40;;;;;;;15.51;74.22;92752.44;2051951;69;20145;-75
2021/07/16 01:33:06;;;;;;;0.38;0.38;;;;;;;15.65;73.92;92763.69;2064886;69;20138;-76
2021/07/16 01:35:32;;;;;;;12.27;0.60;;;;;;;15.56;74.40;92770.38;2065001;69;20203;-75
2021/07/16 01:37:59;;;;;;;1.67;0.50;;;;;;;15.53;75.18;92769.53;2051779;70;20146;-79
2021/07/16 01:40:26;;;;;;;0.98;0.38;;;;;;;15.55;74.70;92766.81;2051967;70;20181;-78
2021/07/16 01:42:58;;;;;;;0.88;0.50;;;;;;;15.58;75.53;92768.38;2064922;69;20295;-77
2021/07/16 01:45:30;;;;;;;2.20;0.60;;;;;;;15.52;75.94;92765.25;2052080;70;20146;-76
2021/07/16 01:48:18;;;;;;;3.20;0.70;;;;;;;15.62;74.55;92768.50;2051880;69;20319;-78
2021/07/16 01:50:46;;;;;;;0.60;0.30;;;;;;;15.57;74.21;92758.38;2062891;69;20157;-78
2021/07/16 01:53:14;;;;;;;1.63;0.50;;;;;;;15.56;74.40;92759.00;2051970;69;20601;-76
2021/07/16 01:55:40;;;;;;;0.43;0.32;;;;;;;15.47;74.36;92761.50;2051962;69;20598;-76
2021/07/16 01:58:09;;;;;;;5.90;0.47;;;;;;;15.54;75.14;92756.84;2051657;70;20160;-77
2021/07/16 02:00:46;;;;;;;1.45;0.45;;;;;;;15.39;76.14;92751.91;2052967;70;20138;-76
2021/07/16 02:03:17;;;;;;;1.13;0.30;;;;;;;15.34;75.93;92764.44;2065486;69;20588;-78
2021/07/16 02:06:03;;;;;;;3.72;0.52;;;;;;;15.50;75.04;92771.56;2052982;69;20637;-76
2021/07/16 02:08:29;;;;;;;2.90;0.43;;;;;;;15.45;74.79;92763.53;2064768;69;20152;-77
2021/07/16 02:10:55;;;;;;;3.28;0.30;;;;;;;15.49;72.14;92769.38;2064865;69;20192;-76
2021/07/16 02:13:23;;;;;;;3.80;0.50;;;;;;;15.39;75.02;92766.81;2065052;69;20161;-77
2021/07/16 02:15:51;;;;;;;2.20;0.50;;;;;;;15.31;75.43;92771.41;2065046;69;20160;-78
2021/07/16 02:18:17;;;;;;;0.68;0.43;;;;;;;15.34;75.02;92770.84;2064714;69;20614;-79
2021/07/16 02:20:43;;;;;;;1.38;0.50;;;;;;;15.32;75.52;92767.19;2064771;69;20239;-80
2021/07/16 02:23:19;;;;;;;3.00;0.60;;;;;;;15.32;75.19;92767.19;2062118;69;20712;-78
2021/07/16 02:25:45;;;;;;;2.05;0.70;;;;;;;15.18;77.40;92775.81;2064330;69;20169;-79
2021/07/16 02:28:20;;;;;;;2.55;0.60;;;;;;;14.95;78.51;92780.47;2065034;69;20148;-76
2021/07/16 02:30:47;;;;;;;3.60;0.90;;;;;;;15.10;76.12;92770.50;2062268;69;20141;-77
2021/07/16 02:33:14;;;;;;;1.40;0.68;;;;;;;15.18;76.09;92782.19;2064756;69;20172;-78
2021/07/16 02:35:39;;;;;;;2.92;0.70;;;;;;;15.16;77.01;92784.22;2062235;69;20255;-76
2021/07/16 02:38:06;;;;;;;3.22;0.55;;;;;;;15.19;76.33;92782.94;2064862;69;20248;-77
2021/07/16 02:40:33;;;;;;;2.40;0.65;;;;;;;15.28;74.60;92784.03;2053623;69;20271;-76
2021/07/16 02:43:01;;;;;;;0.85;0.60;;;;;;;15.19;76.42;92780.81;2053179;69;20142;-75
2021/07/16 02:45:27;;;;;;;2.65;0.80;;;;;;;15.22;75.30;92781.66;2052921;70;20162;-76
2021/07/16 02:47:55;;;;;;;1.92;0.70;;;;;;;15.21;76.20;92786.59;2052823;69;20735;-76
2021/07/16 02:50:26;;;;;;;2.65;0.60;;;;;;;15.17;75.72;92786.41;2065994;69;20215;-75
2021/07/16 02:52:52;;;;;;;1.30;0.57;;;;;;;15.17;75.56;92789.25;2052862;70;20250;-76
2021/07/16 02:55:22;;;;;;;2.97;0.82;;;;;;;15.06;77.38;92789.41;2052997;70;20547;-78
2021/07/16 02:57:52;;;;;;;4.82;0.90;;;;;;;15.13;75.05;92794.75;2065425;69;20655;-79
2021/07/16 03:00:23;;;;;;;2.05;0.70;;;;;;;14.87;77.93;92797.09;2053215;69;20157;-76
2021/07/16 03:02:50;;;;;;;2.42;0.70;;;;;;;15.01;76.92;92799.84;2065436;69;20139;-75
2021/07/16 03:05:18;;;;;;;1.48;0.90;;;;;;;14.92;77.39;92804.41;2052768;70;20237;-78
2021/07/16 03:07:45;;;;;;;3.00;0.68;;;;;;;14.80;78.10;92808.78;2052713;69;20146;-78
2021/07/16 03:10:16;;;;;;;2.83;0.73;;;;;;;14.85;77.10;92801.94;2052790;70;20142;-77
2021/07/16 03:12:42;;;;;;;2.42;0.82;;;;;;;14.90;78.37;92809.25;2052373;70;20178;-78
2021/07/16 03:15:10;;;;;;;1.90;0.75;;;;;;;14.87;78.73;92802.03;2052383;69;20157;-77
2021/07/16 03:17:37;;;;;;;1.55;0.65;;;;;;;14.94;76.14;92795.28;2052199;70;20221;-77
2021/07/16 03:20:08;;;;;;;0.88;0.60;;;;;;;14.89;76.41;92793.59;2052397;70;20150;-77
2021/07/16 03:22:34;;;;;;;1.33;0.75;;;;;;;14.95;77.33;92799.56;2052411;70;20158;-77
2021/07/16 03:25:00;;;;;;;1.02;0.50;;;;;;;14.98;77.11;92803.94;2052400;69;20155;-77
2021/07/16 03:27:25;;;;;;;1.85;0.60;;;;;;;14.94;75.03;92809.44;2052525;69;20231;-77
2021/07/16 03:29:51;;;;;;;4.28;0.80;;;;;;;14.95;75.62;92808.06;2052346;70;20142;-77
2021/07/16 03:32:16;;;;;;;1.58;0.73;;;;;;;14.67;78.75;92798.97;2052268;70;20556;-77
2021/07/16 03:34:42;;;;;;;0.65;0.60;;;;;;;14.55;79.30;92806.91;2052292;70;20162;-77
2021/07/16 03:37:08;;;;;;;6.55;0.70;;;;;;;14.67;78.32;92799.72;2065264;69;20217;-77
2021/07/16 03:39:33;;;;;;;2.33;0.85;;;;;;;14.74;78.18;92809.22;2052355;70;20620;-77
2021/07/16 03:41:59;;;;;;;0.95;0.65;;;;;;;14.84;76.60;92815.34;2052429;70;20215;-77
2021/07/16 03:44:24;;;;;;;2.00;0.65;;;;;;;14.83;77.38;92813.91;2052336;69;20147;-77
2021/07/16 03:46:50;;;;;;;3.85;0.60;;;;;;;14.78;77.92;92817.19;2052193;70;20157;-77
2021/07/16 03:49:16;;;;;;;0.65;0.57;;;;;;;14.81;76.48;92813.09;2052391;70;20154;-77
2021/07/16 03:51:41;;;;;;;1.67;0.70;;;;;;;14.85;76.56;92819.69;2052233;69;20143;-76
2021/07/16 03:54:07;;;;;;;2.53;0.60;;;;;;;14.97;74.60;92816.66;2052443;70;20164;-77
2021/07/16 03:56:33;;;;;;;2.78;0.68;;;;;;;14.87;76.63;92819.75;2052343;70;20582;-76
2021/07/16 03:58:58;;;;;;;1.65;0.60;;;;;;;14.89;76.27;92822.72;2052286;70;20160;-76
2021/07/16 04:01:24;;;;;;;4.28;0.60;;;;;;;14.99;74.82;92828.84;2052263;70;20228;-77
2021/07/16 04:03:49;;;;;;;1.08;0.50;;;;;;;15.01;74.32;92831.03;2052431;70;20172;-77
2021/07/16 04:06:15;;;;;;;4.20;0.82;;;;;;;14.92;75.68;92827.09;2052323;69;20170;-76
2021/07/16 04:08:43;;;;;;;1.88;0.60;;;;;;;14.92;76.30;92829.19;2052345;70;20219;-76
2021/07/16 04:11:09;;;;;;;2.03;0.90;;;;;;;14.89;76.90;92831.22;2052330;70;20150;-76
2021/07/16 04:13:35;;;;;;;2.85;0.70;;;;;;;14.98;75.01;92835.13;2065268;69;20182;-76
2021/07/16 04:16:00;;;;;;;3.50;1.02;;;;;;;14.92;77.21;92832.03;2052359;70;20150;-76
2021/07/16 04:18:26;;;;;;;3.45;0.60;;;;;;;15.03;75.53;92839.66;2052264;69;20620;-76
2021/07/16 04:20:52;;;;;;;1.38;0.70;;;;;;;14.99;76.79;92836.63;2052355;69;20154;-76
2021/07/16 04:23:18;;;;;;;1.63;0.57;;;;;;;15.09;76.22;92834.25;2052201;70;20150;-76
2021/07/16 04:25:44;;;;;;;3.85;0.85;;;;;;;15.08;76.20;92843.41;2052275;69;20146;-76
2021/07/16 04:28:10;;;;;;;0.90;0.80;;;;;;;15.07;75.60;92841.91;2052321;69;20130;-76
2021/07/16 04:30:36;;;;;;;1.73;1.00;;;;;;;14.88;77.50;92841.06;2052309;70;20141;-76
2021/07/16 04:33:04;;;;;;;2.40;1.00;;;;;;;14.90;76.50;92841.16;2052188;69;20239;-76
2021/07/16 04:35:30;;;;;;;2.67;1.02;;;;;;;14.94;76.41;92837.81;2052320;70;20154;-76
2021/07/16 04:37:56;;;;;;;1.58;0.98;;;;;;;15.09;76.25;92842.03;2052260;70;20532;-76
2021/07/16 04:40:24;;;;;;;6.40;1.25;;;;;;;15.16;76.95;92841.66;2052306;70;20241;-76
2021/07/16 04:42:51;;;;;;;2.38;0.90;;;;;;;15.21;76.10;92845.41;2052296;70;20225;-76
2021/07/16 04:45:17;;;;;;;4.05;0.82;;;;;;;15.21;77.67;92846.16;2065153;69;20180;-76
2021/07/16 04:47:44;;;;;;;2.67;0.98;;;;;;;15.31;74.43;92833.81;2052183;70;20224;-76
2021/07/16 04:50:11;;;;;;;1.45;1.00;;;;;;;15.36;72.98;92841.84;2052269;70;20173;-76
2021/07/16 04:52:42;;;;;;;2.97;1.15;;;;;;;15.25;76.48;92839.91;2058807;69;20150;-76
2021/07/16 04:55:09;;;;;;;2.50;1.05;;;;;;;15.20;77.05;92832.59;2048962;70;20166;-76
2021/07/16 04:57:35;;;;;;;5.07;1.27;;;;;;;15.32;74.65;92836.00;2048913;70;20150;-76
2021/07/16 05:00:02;;;;;;;2.17;0.93;;;;;;;15.47;75.74;92835.25;2048974;70;20186;-76
2021/07/16 05:02:27;;;;;;;2.55;1.00;;;;;;;15.54;73.31;92836.28;2048309;70;20161;-76
2021/07/16 05:04:53;;;;;;;3.53;0.95;;;;;;;15.64;75.06;92833.19;2049079;70;20161;-76
2021/07/16 05:07:18;;;;;;;2.42;1.00;;;;;;;15.70;76.08;92834.16;2049044;70;20151;-77
2021/07/16 05:09:44;;;;;;;6.95;0.90;;;;;;;15.70;74.56;92834.16;2048349;70;20613;-76
2021/07/16 05:12:10;;;;;;;3.83;1.17;;;;;;;15.73;72.19;92832.16;2048415;70;20171;-76
2021/07/16 05:14:35;;;;;;;2.45;1.23;;;;;;;15.88;73.76;92834.22;2048892;69;20147;-77
2021/07/16 05:17:01;;;;;;;2.28;1.05;;;;;;;15.85;75.69;92837.63;2048765;70;20177;-76
2021/07/16 05:19:26;;;;;;;3.63;1.15;;;;;;;15.85;75.34;92831.94;2049011;70;20150;-75
2021/07/16 05:21:52;;;;;;;4.00;1.45;;;;;;;15.99;71.54;92832.59;2049140;70;20158;-77
2021/07/16 05:24:17;;;;;;;6.13;1.17;;;;;;;16.01;72.25;92835.50;2048856;70;20160;-77
2021/07/16 05:26:43;;;;;;;6.68;1.10;;;;;;;15.96;73.07;92831.03;2048893;70;20684;-79
2021/07/16 05:29:09;;;;;;;2.53;0.98;;;;;;;16.02;72.32;92832.00;2048999;70;20150;-77
2021/07/16 05:31:35;;;;;;;3.28;1.10;;;;;;;16.13;72.64;92835.28;2048769;70;20154;-78
2021/07/16 05:34:02;;;;;;;1.30;0.82;;;;;;;16.15;71.09;92833.25;2048774;70;20173;-78
2021/07/16 05:36:27;;;;;;;3.63;1.00;;;;;;;15.92;74.29;92822.31;2048848;70;20262;-79
2021/07/16 05:38:54;;;;;;;2.83;0.90;;;;;;;16.02;73.88;92831.28;2048850;70;20141;-79
2021/07/16 05:41:20;;;;;;;1.88;0.80;;;;;;;15.88;74.75;92833.50;2048982;70;20157;-78
2021/07/16 05:43:45;;;;;;;2.97;1.10;;;;;;;16.21;71.72;92827.09;2048794;70;20163;-77
2021/07/16 05:46:11;;;;;;;1.35;0.95;;;;;;;16.27;71.77;92825.25;2048827;70;20158;-76
2021/07/16 05:48:36;;;;;;;4.38;1.10;;;;;;;16.32;73.37;92814.78;2048966;70;20145;-76
2021/07/16 05:51:03;;;;;;;1.52;0.98;;;;;;;16.32;72.28;92814.06;2048849;70;20139;-78
2021/07/16 05:53:29;;;;;;;2.28;1.10;;;;;;;16.16;72.04;92817.69;2051423;70;20581;-77
2021/07/16 05:55:55;;;;;;;3.47;1.10;;;;;;;16.14;71.89;92819.72;2052111;69;20249;-77
2021/07/16 05:58:21;;;;;;;3.83;1.25;;;;;;;16.05;72.10;92823.59;2052070;70;20147;-76
2021/07/16 06:00:46;;;;;;;5.03;1.30;;;;;;;16.16;71.22;92826.19;2052111;70;20209;-77
2021/07/16 06:03:12;;;;;;;5.78;1.15;;;;;;;16.36;71.30;92820.66;2051952;70;20166;-79
2021/07/16 06:05:38;;;;;;;3.42;1.10;;;;;;;16.48;71.52;92835.34;2052090;70;20154;-77
2021/07/16 06:08:04;;;;;;;2.45;1.05;;;;;;;16.39;70.78;92833.53;2052082;70;20519;-78
2021/07/16 06:10:31;;;;;;;2.20;1.30;;;;;;;16.07;73.65;92841.44;2052081;69;20154;-78
2021/07/16 06:12:57;;;;;;;2.08;1.10;;;;;;;16.42;69.94;92835.09;2052114;70;20186;-76
2021/07/16 06:15:24;;;;;;;1.45;1.08;;;;;;;16.62;70.75;92838.03;2052047;70;20631;-78
2021/07/16 06:17:50;;;;;;;1.95;1.02;;;;;;;16.61;71.90;92842.25;2051964;69;20233;-80
2021/07/16 06:20:17;;;;;;;3.30;1.10;;;;;;;16.66;73.05;92841.03;2052276;70;20245;-80
2021/07/16 06:22:44;;;;;;;2.33;1.40;;;;;;;16.71;71.14;92844.78;2052063;69;20146;-78
2021/07/16 06:25:11;;;;;;;1.52;1.10;;;;;;;16.78;71.20;92843.69;2052065;69;20142;-79
2021/07/16 06:27:39;;;;;;;1.15;0.98;;;;;;;16.81;70.45;92847.31;2052103;70;20146;-78
2021/07/16 06:30:05;;;;;;;3.53;1.10;;;;;;;16.91;67.44;92842.06;2052012;69;20142;-78
2021/07/16 06:32:34;;;;;;;4.72;1.30;;;;;;;17.00;69.20;92847.41;2051903;70;20618;-78
2021/07/16 06:35:01;;;;;;;1.23;0.98;;;;;;;16.97;68.81;92845.84;2052048;69;20625;-77
2021/07/16 06:37:26;;;;;;;2.08;1.08;;;;;;;16.95;68.93;92847.88;2052171;69;20594;-78
2021/07/16 06:39:52;;;;;;;2.55;1.67;;;;;;;17.02;69.66;92847.47;2052005;70;20154;-79
2021/07/16 06:42:18;;;;;;;1.85;1.08;;;;;;;17.02;67.44;92843.91;2051963;70;20178;-77
2021/07/16 06:44:44;;;;;;;2.30;1.23;;;;;;;17.06;70.08;92849.03;2064900;69;20146;-78
2021/07/16 06:47:10;;;;;;;1.73;1.30;;;;;;;17.06;69.56;92841.22;2052183;70;20130;-79
2021/07/16 06:49:36;;;;;;;3.45;1.10;;;;;;;17.07;67.38;92847.63;2052567;69;20288;-80
2021/07/16 06:52:02;;;;;;;3.20;1.20;;;;;;;17.11;68.50;92842.09;2052416;69;20628;-77
2021/07/16 06:54:29;;;;;;;3.17;1.20;;;;;;;17.23;68.63;92856.81;2052512;70;20166;-77
2021/07/16 06:56:54;;;;;;;2.92;1.30;;;;;;;17.36;69.07;92855.16;2052535;70;20158;-78
2021/07/16 06:59:21;;;;;;;2.22;1.20;;;;;;;17.36;67.06;92858.00;2052474;70;20219;-79
2021/07/16 07:01:47;;;;;;;2.75;0.85;;;;;;;17.01;68.12;92859.50;2052330;70;20140;-77
2021/07/16 07:04:12;;;;;;;1.27;0.90;;;;;;;17.24;68.14;92861.13;2052441;70;20147;-77
2021/07/16 07:06:38;;;;;;;1.10;1.00;;;;;;;17.51;67.18;92863.59;2052428;70;20494;-78
2021/07/16 07:09:04;;;;;;;1.65;1.00;;;;;;;17.75;66.58;92863.06;2052560;69;20512;-77
2021/07/16 07:11:30;;;;;;;1.88;1.10;;;;;;;17.76;67.96;92864.50;2052410;70;20223;-77
2021/07/16 07:13:55;;;;;;;6.32;1.38;;;;;;;17.76;67.17;92865.22;2052576;69;20148;-78
2021/07/16 07:16:21;;;;;;;1.85;0.70;;;;;;;17.97;66.87;92872.41;2052340;70;20573;-79
2021/07/16 07:18:46;;;;;;;1.60;0.75;;;;;;;18.08;64.56;92867.06;2052373;69;20215;-77
2021/07/16 07:21:14;;;;;;;1.58;0.60;;;;;;;18.17;64.23;92869.53;2052449;70;20239;-76
2021/07/16 07:23:40;;;;;;;0.70;0.60;;;;;;;18.26;65.08;92874.16;2052361;70;20169;-76
2021/07/16 07:26:06;;;;;;;0.80;0.80;;;;;;;18.35;64.77;92875.16;2065314;69;20153;-78
2021/07/16 07:28:32;;;;;;;0.95;0.70;;;;;;;18.45;64.06;92872.66;2052405;70;20143;-78
2021/07/16 07:30:57;;;;;;;0.82;0.70;;;;;;;18.47;62.55;92864.19;2052350;69;20168;-79
2021/07/16 07:33:23;;;;;;;2.15;0.88;;;;;;;18.56;62.54;92865.19;2052496;70;20592;-79
2021/07/16 07:35:49;;;;;;;4.22;0.80;;;;;;;18.76;62.30;92874.44;2052380;70;20138;-80
2021/07/16 07:38:14;;;;;;;2.53;0.70;;;;;;;18.53;61.75;92872.22;2052442;70;20176;-81
2021/07/16 07:40:41;;;;;;;2.45;0.82;;;;;;;18.65;62.10;92869.06;2052380;70;20142;-78
2021/07/16 07:43:06;;;;;;;1.70;0.70;;;;;;;18.66;62.07;92864.81;2052375;69;20200;-78
2021/07/16 07:45:34;;;;;;;1.13;0.60;;;;;;;18.86;62.03;92865.50;2052501;70;20154;-86
2021/07/16 07:47:59;;;;;;;0.73;0.70;;;;;;;18.91;60.87;92866.34;2052314;69;20242;-80
2021/07/16 07:50:26;;;;;;;3.17;1.00;;;;;;;18.89;61.11;92869.16;2052347;70;20179;-80
2021/07/16 07:52:52;;;;;;;1.13;0.82;;;;;;;18.86;61.04;92864.75;2052392;69;20234;-80
2021/07/16 07:55:20;;;;;;;1.92;0.82;;;;;;;18.89;60.83;92869.16;2052345;70;20170;-80
2021/07/16 07:57:47;;;;;;;2.22;0.77;;;;;;;19.00;60.64;92873.78;2052286;70;20225;-79
2021/07/16 08:00:16;;;;;;;1.85;1.00;;;;;;;18.99;61.68;92870.19;2052318;70;20181;-82
2021/07/16 08:02:42;;;;;;;4.00;0.98;;;;;;;19.09;61.74;92871.91;2052374;70;20524;-82
2021/07/16 08:05:09;;;;;;;4.20;1.15;;;;;;;19.24;61.44;92874.56;2052335;69;20174;-78
2021/07/16 08:07:36;;;;;;;2.08;0.90;;;;;;;19.20;60.88;92873.72;2052346;70;20161;-84
2021/07/16 08:10:07;;;;;;;2.50;0.85;;;;;;;19.19;62.61;92869.38;2065386;69;20134;-80
2021/07/16 08:12:33;;;;;;;0.80;0.80;;;;;;;19.22;61.72;92863.06;2052550;70;20158;-84
2021/07/16 08:14:59;;;;;;;1.55;1.00;;;;;;;19.20;60.79;92870.84;2052656;70;20734;-85
2021/07/16 08:17:25;;;;;;;1.85;0.88;;;;;;;19.21;60.93;92861.63;2052229;70;20134;-81
2021/07/16 08:19:51;;;;;;;2.55;0.98;;;;;;;19.04;62.28;92868.94;2052433;70;20150;-80
2021/07/16 08:22:17;;;;;;;2.63;0.90;;;;;;;19.20;60.16;92860.16;2052311;70;20146;-82
2021/07/16 08:24:43;;;;;;;0.88;0.70;;;;;;;19.22;59.93;92868.06;2052443;69;20149;-82
2021/07/16 08:27:08;;;;;;;1.00;0.73;;;;;;;19.32;60.43;92867.66;2052325;70;20149;-82
2021/07/16 08:29:34;;;;;;;2.58;0.80;;;;;;;19.31;60.28;92861.22;2052312;70;20157;-82
2021/07/16 08:32:00;;;;;;;1.13;1.00;;;;;;;19.57;60.96;92863.41;2052209;69;20592;-82
2021/07/16 08:34:26;;;;;;;2.08;1.00;;;;;;;19.64;61.32;92862.94;2052262;69;20176;-82
2021/07/16 08:36:52;;;;;;;3.53;0.98;;;;;;;19.73;59.99;92866.78;2052382;69;20156;-82
2021/07/16 08:39:18;;;;;;;1.67;0.80;;;;;;;19.75;60.71;92870.44;2052325;69;20173;-82
2021/07/16 08:41:44;;;;;;;1.42;0.90;;;;;;;19.71;61.07;92872.44;2065209;69;20149;-81
2021/07/16 08:44:09;;;;;;;2.75;0.80;;;;;;;19.26;61.01;92871.03;2052265;69;20169;-80
2021/07/16 08:46:35;;;;;;;0.75;0.70;;;;;;;19.73;60.64;92878.19;2052186;70;20232;-82
2021/07/16 08:49:01;;;;;;;2.03;0.80;;;;;;;19.80;60.36;92877.72;2052352;70;20604;-82
2021/07/16 08:51:27;;;;;;;1.38;0.50;;;;;;;19.67;59.68;92875.16;2052176;69;20149;-80
2021/07/16 08:53:55;;;;;;;0.60;0.60;;;;;;;19.64;58.95;92873.63;2052254;70;20146;-79
2021/07/16 08:56:24;;;;;;;0.95;0.85;;;;;;;19.66;59.57;92882.28;2052304;70;20139;-80
2021/07/16 08:58:50;;;;;;;0.65;0.60;;;;;;;19.60;59.92;92887.75;2052293;70;20678;-81
2021/07/16 09:01:15;;;;;;;4.88;0.68;;;;;;;18.99;59.37;92887.31;2052112;69;20138;-80
2021/07/16 09:04:04;;;;;;;1.58;0.70;;;;;;;19.36;59.07;92891.34;2065203;69;20200;-80
2021/07/16 09:06:51;;;;;;;1.15;0.80;;;;;;;19.38;59.78;92897.13;2052341;70;20170;-80
2021/07/16 09:09:22;;;;;;;1.20;0.70;;;;;;;19.58;59.38;92899.13;2052087;70;20142;-80
2021/07/16 09:11:52;;;;;;;1.20;0.90;;;;;;;19.68;58.82;92899.47;2052358;70;20159;-80
2021/07/16 09:14:19;;;;;;;0.90;0.70;;;;;;;19.76;58.87;92891.16;2052199;70;20127;-80
2021/07/16 09:17:15;;;;;;;1.13;0.70;;;;;;;19.91;58.53;92895.88;2052079;69;20138;-79
2021/07/16 09:19:42;;;;;;;1.63;0.90;;;;;;;20.12;58.33;92902.91;2052187;70;20147;-79
2021/07/16 09:22:26;;;;;;;1.85;0.80;;;;;;;20.08;57.03;92899.22;2052343;70;20536;-80
2021/07/16 09:25:00;;;;;;;0.95;0.70;;;;;;;20.11;58.89;92897.84;2052245;70;20142;-81
2021/07/16 09:27:34;;;;;;;1.63;0.63;;;;;;;20.44;58.74;92894.50;2052197;70;20594;-80
2021/07/16 09:30:29;;;;;;;0.70;0.70;;;;;;;20.72;56.82;92905.28;2052202;70;20146;-80
2021/07/16 09:33:05;;;;;;;0.93;0.73;;;;;;;20.58;58.02;92904.91;2049149;70;20157;-80
2021/07/16 09:35:39;;;;;;;1.20;0.80;;;;;;;20.80;60.05;92900.50;2052389;70;20182;-80
2021/07/16 09:38:11;;;;;;;1.92;0.70;;;;;;;21.06;57.63;92905.44;2052162;70;20628;-81
2021/07/16 09:40:39;;;;;;;2.30;0.70;;;;;;;21.03;55.68;92903.94;2052199;70;20122;-80
2021/07/16 09:43:10;;;;;;;0.88;0.70;;;;;;;20.96;56.67;92902.31;2052213;70;20729;-81
2021/07/16 09:45:38;;;;;;;2.53;0.60;;;;;;;21.31;55.66;92903.94;2065142;69;20607;-84
2021/07/16 09:48:26;;;;;;;0.70;0.70;;;;;;;21.43;55.44;92906.34;2052019;69;20222;-81
2021/07/16 09:51:15;;;;;;;0.70;0.60;;;;;;;21.50;54.42;92902.22;2052163;70;20150;-82
2021/07/16 09:53:52;;;;;;;2.58;0.70;;;;;;;21.02;54.73;92897.47;2052076;70;20240;-79
2021/07/16 09:56:21;;;;;;;1.63;0.60;;;;;;;20.74;56.21;92902.47;2052146;70;20174;-79
2021/07/16 09:58:49;;;;;;;1.88;0.70;;;;;;;21.16;54.57;92897.09;2052084;70;20149;-79
2021/07/16 10:01:15;;;;;;;1.00;0.88;;;;;;;21.47;53.56;92909.31;2052025;70;20559;-79
2021/07/16 10:03:42;;;;;;;0.70;0.70;;;;;;;21.70;54.63;92899.81;2052127;70;20613;-79
2021/07/16 10:06:13;;;;;;;2.60;0.80;;;;;;;21.62;54.24;92904.63;2052087;69;20203;-79
2021/07/16 10:08:42;;;;;;;1.85;0.60;;;;;;;21.73;53.45;92898.47;2052101;70;20255;-78
2021/07/16 10:11:11;;;;;;;2.58;0.55;;;;;;;21.47;54.23;92895.00;2052225;69;20138;-80
2021/07/16 10:13:39;;;;;;;3.00;0.60;;;;;;;21.40;54.17;92899.13;2052163;70;20497;-79
2021/07/16 10:16:05;;;;;;;0.82;0.60;;;;;;;21.42;53.84;92893.44;2052136;70;20149;-80
2021/07/16 10:18:31;;;;;;;1.77;0.70;;;;;;;21.70;54.52;92894.09;2052030;70;20149;-79
2021/07/16 10:20:56;;;;;;;1.85;0.70;;;;;;;21.27;53.42;92890.22;2052447;69;20138;-79
2021/07/16 10:23:24;;;;;;;0.80;0.50;;;;;;;21.38;54.91;92893.34;2052486;69;20153;-79
2021/07/16 10:25:51;;;;;;;1.60;0.60;;;;;;;21.40;54.41;92891.28;2052505;69;20161;-79
2021/07/16 10:28:29;;;;;;;0.55;0.55;;;;;;;21.50;53.08;92891.50;2051509;70;20222;-76
2021/07/16 10:30:55;;;;;;;0.73;0.60;;;;;;;21.31;54.43;92898.22;2050764;70;20239;-81
2021/07/16 10:33:35;;;;;;;1.27;0.60;;;;;;;21.09;55.46;92886.91;2050895;70;20508;-75
2021/07/16 10:36:01;;;;;;;2.25;0.75;;;;;;;20.67;56.55;92881.56;2049108;69;20159;-79
2021/07/16 10:38:33;;;;;;;4.57;0.90;;;;;;;20.94;55.79;92887.97;2048629;70;20147;-81
2021/07/16 10:41:00;;;;;;;0.87;0.57;;;;;;;20.58;57.02;92893.47;2051821;70;20246;-80
2021/07/16 10:43:25;;;;;;;2.35;0.70;;;;;;;21.19;54.71;92895.03;2052298;70;20142;-79
2021/07/16 10:45:52;;;;;;;1.30;0.55;;;;;;;21.60;54.89;92893.88;2052407;69;20180;-78
2021/07/16 10:48:22;;;;;;;1.15;0.70;;;;;;;21.91;54.95;92903.88;2052110;70;20157;-80
2021/07/16 10:50:52;;;;;;;2.80;0.70;;;;;;;21.66;54.81;92899.00;2052436;69;20579;-78
2021/07/16 10:53:27;;;;;;;2.42;0.60;;;;;;;22.06;55.26;92890.56;2052753;70;20161;-77
2021/07/16 10:55:55;;;;;;;1.42;0.80;;;;;;;22.27;53.40;92903.22;2065369;69;20229;-78
2021/07/16 10:58:43;;;;;;;2.67;0.82;;;;;;;22.31;53.09;92891.81;2062530;69;20138;-78
2021/07/16 11:01:11;;;;;;;1.17;0.80;;;;;;;22.08;52.97;92894.22;2065294;69;20586;-78
2021/07/16 11:03:50;;;;;;;0.85;0.60;;;;;;;22.18;51.60;92890.13;2052358;69;20598;-80
2021/07/16 11:06:17;;;;;;;1.30;0.70;;;;;;;22.37;53.03;92899.84;2052504;70;20177;-79
2021/07/16 11:08:43;;;;;;;0.50;0.50;;;;;;;22.59;52.29;92885.94;2052216;69;20150;-78
2021/07/16 11:11:18;;;;;;;1.52;0.60;;;;;;;23.11;49.56;92888.31;2052317;69;20149;-79
2021/07/16 11:13:51;;;;;;;0.85;0.50;;;;;;;23.22;50.49;92875.56;2052211;70;20601;-78
2021/07/16 11:16:27;;;;;;;1.13;0.73;;;;;;;22.71;49.22;92882.56;2052335;69;20608;-77
2021/07/16 11:19:09;;;;;;;0.40;0.40;;;;;;;23.47;47.70;92876.69;2065290;69;20193;-77
2021/07/16 11:21:52;;;;;;;3.05;0.60;;;;;;;24.00;44.97;92877.47;2065387;69;20139;-77
2021/07/16 11:24:24;;;;;;;1.73;0.60;;;;;;;24.45;47.01;92874.47;2052239;69;20130;-77
2021/07/16 11:27:12;;;;;;;1.67;0.60;;;;;;;23.99;46.75;92864.53;2052460;70;20146;-78
2021/07/16 11:29:37;;;;;;;2.05;0.60;;;;;;;26.33;42.92;92863.09;2052397;70;20150;-78
2021/07/16 11:32:24;;;;;;;1.50;0.60;;;;;;;26.57;42.81;92868.28;2052128;70;20145;-78
2021/07/16 11:34:57;;;;;;;0.73;0.50;;;;;;;28.12;39.68;92879.97;2052440;70;20189;-79
2021/07/16 11:37:27;;;;;;;1.60;0.50;;;;;;;30.08;35.05;92876.00;2052128;69;20138;-79